Terminal Aerodrome Forecast
Issued by NWS

Home | Current Version | Previous Version | Graphics & Text | Print | Product List | Glossary On
Versions: 1 2 3 4 5 6 7 8 9 10 11 12 13 14 15
000
FTUS42 KMHX 271141
TAFOAJ
TAF
KOAJ 271141Z 2712/2812 00000KT P6SM VCTS BKN020 OVC040CB
     FM271600 04009KT P6SM VCSH SCT025 BKN040
     FM280800 01003KT 5SM BR SCT010
      AMD LTD TO CLD VIS AND WIND=

USA.gov is the U.S. government's official web portal to all federal, state and local government web resources and services.